TimeCST,TemperatureF,Dew PointF,Humidity,Sea Level PressureIn,VisibilityMPH,Wind Direction,Wind SpeedMPH,Gust SpeedMPH,PrecipitationIn,Events,Conditions,WindDirDegrees,DateUTC
12:55 AM,30.4,23.2,75,30.19,10.0,NW,4.6,-,N/A,,Clear,310,2013-02-12 06:55:00
1:55 AM,28.6,22.6,78,30.18,10.0,NNW,4.6,-,N/A,,Clear,340,2013-02-12 07:55:00
2:55 AM,28.6,23.0,80,30.18,10.0,NNW,4.6,-,N/A,,Clear,340,2013-02-12 08:55:00
3:55 AM,28.0,23.4,83,30.16,10.0,North,4.6,-,N/A,,Clear,10,2013-02-12 09:55:00
4:55 AM,25.7,23.0,89,30.17,10.0,NNE,4.6,-,N/A,,Clear,30,2013-02-12 10:55:00
5:55 AM,25.0,24.3,97,30.17,10.0,NNE,5.8,-,N/A,,Clear,20,2013-02-12 11:55:00
6:55 AM,25.2,25.0,99,30.16,10.0,NNE,5.8,-,N/A,,Scattered Clouds,30,2013-02-12 12:55:00
7:55 AM,26.2,26.1,99,30.17,10.0,Calm,Calm,-,N/A,,Clear,0,2013-02-12 13:55:00
8:55 AM,29.7,29.1,98,30.14,10.0,East,5.8,-,N/A,,Clear,100,2013-02-12 14:55:00
9:55 AM,32.0,30.4,94,30.13,10.0,East,5.8,-,N/A,,Partly Cloudy,80,2013-02-12 15:55:00
10:55 AM,32.9,29.7,88,30.14,10.0,Calm,Calm,-,N/A,,Overcast,0,2013-02-12 16:55:00
11:55 AM,35.2,29.7,80,30.13,10.0,Calm,Calm,-,N/A,,Overcast,0,2013-02-12 17:55:00
12:55 PM,37.0,29.7,75,30.12,10.0,Calm,Calm,-,N/A,,Overcast,0,2013-02-12 18:55:00
1:55 PM,38.5,29.5,70,30.09,10.0,North,3.5,-,N/A,,Overcast,350,2013-02-12 19:55:00
2:55 PM,39.4,27.5,62,30.06,10.0,Calm,Calm,-,N/A,,Overcast,0,2013-02-12 20:55:00
3:55 PM,39.6,28.4,64,30.03,10.0,Calm,Calm,-,N/A,,Overcast,0,2013-02-12 21:55:00
4:55 PM,39.0,29.7,69,30.02,10.0,NNE,4.6,-,N/A,,Overcast,20,2013-02-12 22:55:00
5:55 PM,37.6,30.0,74,30.01,10.0,Calm,Calm,-,N/A,,Mostly Cloudy,0,2013-02-12 23:55:00
6:55 PM,36.1,30.6,80,30.01,10.0,Calm,Calm,-,N/A,,Overcast,0,2013-02-13 00:55:00
7:55 PM,37.0,28.9,73,30.01,10.0,Calm,Calm,-,N/A,,Overcast,0,2013-02-13 01:55:00
8:55 PM,35.8,30.0,80,30.01,10.0,Calm,Calm,-,N/A,,Overcast,0,2013-02-13 02:55:00
9:55 PM,35.6,28.2,75,30.01,10.0,WNW,3.5,-,N/A,,Mostly Cloudy,290,2013-02-13 03:55:00
10:55 PM,35.1,28.6,77,30.00,10.0,SW,4.6,-,N/A,,Mostly Cloudy,230,2013-02-13 04:55:00
11:55 PM,32.9,30.6,91,29.98,10.0,SSW,6.9,-,N/A,,Scattered Clouds,200,2013-02-13 05:55:00